createdAt,value
2023-05-19T00:01:59.503Z,88.47
2023-05-19T00:04:27.811Z,88.49
2023-05-19T00:06:56.420Z,88.41
2023-05-19T00:09:24.257Z,88.37
2023-05-19T00:11:52.158Z,88.48
2023-05-19T00:14:20.211Z,88.40
2023-05-19T00:16:48.032Z,88.42
2023-05-19T00:19:15.657Z,88.59
2023-05-19T00:21:43.327Z,88.56
2023-05-19T00:24:11.082Z,88.52
2023-05-19T00:26:38.845Z,88.50
2023-05-19T00:29:06.474Z,88.46
2023-05-19T00:31:34.428Z,88.63
2023-05-19T00:34:02.321Z,88.63
2023-05-19T00:36:29.974Z,88.72
2023-05-19T00:38:57.589Z,88.93
2023-05-19T00:41:25.261Z,88.87
2023-05-19T00:43:52.986Z,88.88
2023-05-19T00:46:20.648Z,88.91
2023-05-19T00:48:48.356Z,89.10
2023-05-19T00:51:17.258Z,89.02
2023-05-19T00:53:46.535Z,89.25
2023-05-19T00:56:14.695Z,89.01
2023-05-19T00:58:42.450Z,89.17
2023-05-19T01:01:10.103Z,89.20
2023-05-19T01:03:38.915Z,89.25
2023-05-19T01:06:06.738Z,89.35
2023-05-19T01:08:37.651Z,89.39
2023-05-19T01:11:06.529Z,89.51
2023-05-19T01:13:36.323Z,89.39
2023-05-19T01:16:31.507Z,89.32
2023-05-19T01:19:05.164Z,89.31
2023-05-19T01:22:06.488Z,89.39
2023-05-19T01:24:49.054Z,89.37
2023-05-19T01:27:38.357Z,89.32
2023-05-19T01:30:42.153Z,89.25
2023-05-19T01:33:12.761Z,89.29
2023-05-19T01:35:42.327Z,89.27
2023-05-19T01:38:11.804Z,89.39
2023-05-19T01:40:41.335Z,89.48
2023-05-19T01:43:12.737Z,89.40
2023-05-19T01:45:41.049Z,89.49
2023-05-19T01:48:11.007Z,89.41
2023-05-19T01:50:42.663Z,89.41
2023-05-19T01:53:10.502Z,89.33
2023-05-19T01:55:50.058Z,89.41
2023-05-19T01:58:21.120Z,89.41
2023-05-19T02:01:03.388Z,89.46
2023-05-19T02:03:48.179Z,89.54
2023-05-19T02:06:46.267Z,89.52
2023-05-19T02:09:22.316Z,89.45
2023-05-19T02:11:56.355Z,89.47
2023-05-19T02:14:35.465Z,89.56
2023-05-19T02:17:04.901Z,89.37
2023-05-19T02:19:36.953Z,89.41
2023-05-19T02:22:04.926Z,89.47
2023-05-19T02:24:32.673Z,89.38
2023-05-19T02:27:00.338Z,89.53
2023-05-19T02:29:29.228Z,89.47
2023-05-19T02:31:56.873Z,89.30
2023-05-19T02:34:24.452Z,89.29
2023-05-19T02:36:52.034Z,89.33
2023-05-19T02:39:19.614Z,89.41
2023-05-19T02:41:47.223Z,89.48
2023-05-19T02:44:14.831Z,89.46
2023-05-19T02:46:42.553Z,89.38
2023-05-19T02:49:10.289Z,89.39
2023-05-19T02:51:37.972Z,89.40
2023-05-19T02:54:05.720Z,89.36
2023-05-19T02:56:33.340Z,89.56
2023-05-19T02:59:00.922Z,89.65
2023-05-19T03:01:28.762Z,89.76
2023-05-19T03:03:56.488Z,89.84
2023-05-19T03:06:24.288Z,89.81
2023-05-19T03:08:51.916Z,90.02
2023-05-19T03:11:19.500Z,90.17
2023-05-19T03:13:47.110Z,90.15
2023-05-19T03:16:14.803Z,90.13
2023-05-19T03:18:43.240Z,90.24
2023-05-19T03:21:10.840Z,90.16
2023-05-19T03:23:38.407Z,90.24
2023-05-19T03:26:05.981Z,90.34
2023-05-19T03:28:33.605Z,90.18
2023-05-19T03:31:01.225Z,90.21
2023-05-19T03:33:29.045Z,90.29
2023-05-19T03:35:57.381Z,90.16
2023-05-19T03:38:25.055Z,90.15
2023-05-19T03:40:52.666Z,90.20
2023-05-19T03:43:20.279Z,90.19
2023-05-19T03:45:48.132Z,90.02
2023-05-19T03:48:15.745Z,90.23
2023-05-19T03:50:43.351Z,90.14
2023-05-19T03:53:10.925Z,89.99
2023-05-19T03:55:39.065Z,89.75
2023-05-19T03:58:06.704Z,89.55
2023-05-19T04:00:34.467Z,89.34
2023-05-19T04:03:05.199Z,89.16
2023-05-19T04:05:32.937Z,88.93
2023-05-19T04:08:00.553Z,88.90
2023-05-19T04:10:28.487Z,88.66
2023-05-19T04:12:56.144Z,88.47
2023-05-19T04:15:23.833Z,88.24
2023-05-19T04:17:51.679Z,88.05
2023-05-19T04:20:19.422Z,87.91
2023-05-19T04:22:47.071Z,87.71
2023-05-19T04:25:14.811Z,87.59
2023-05-19T04:27:42.566Z,87.30
2023-05-19T04:30:10.754Z,86.90
2023-05-19T04:32:38.391Z,86.76
2023-05-19T04:35:06.212Z,86.52
2023-05-19T04:37:33.852Z,86.29
2023-05-19T04:40:01.586Z,86.10
2023-05-19T04:42:29.173Z,85.90
2023-05-19T04:44:56.748Z,85.69
2023-05-19T04:47:24.432Z,85.29
2023-05-19T04:49:52.069Z,85.11
2023-05-19T04:52:19.733Z,85.15
2023-05-19T04:54:47.486Z,85.23
2023-05-19T04:57:15.104Z,84.94
2023-05-19T04:59:42.783Z,84.64
2023-05-19T05:02:10.583Z,84.43
2023-05-19T05:04:38.374Z,84.14
2023-05-19T05:07:06.227Z,83.98
2023-05-19T05:09:33.986Z,83.50
2023-05-19T05:12:02.637Z,83.49
2023-05-19T05:14:30.553Z,83.04
2023-05-19T05:16:58.508Z,83.10
2023-05-19T05:19:26.509Z,82.67
2023-05-19T05:21:54.481Z,82.13
2023-05-19T05:24:22.677Z,82.00
2023-05-19T05:26:50.826Z,81.71
2023-05-19T05:29:19.909Z,81.64
2023-05-19T05:31:47.514Z,81.62
2023-05-19T05:34:15.273Z,81.18
2023-05-19T05:36:42.904Z,80.97
2023-05-19T05:39:10.476Z,80.69
2023-05-19T05:41:38.100Z,80.53
2023-05-19T05:44:05.793Z,80.47
2023-05-19T05:46:33.431Z,80.54
2023-05-19T05:49:01.695Z,80.29
2023-05-19T05:51:29.600Z,79.96
2023-05-19T05:53:57.795Z,80.05
2023-05-19T05:56:25.772Z,79.83
2023-05-19T05:58:53.581Z,79.64
2023-05-19T06:01:21.170Z,79.46
2023-05-19T06:03:48.858Z,79.10
2023-05-19T06:06:16.586Z,79.00
2023-05-19T06:08:44.189Z,78.73
2023-05-19T06:11:11.816Z,78.65
2023-05-19T06:13:39.907Z,78.55
2023-05-19T06:16:08.150Z,78.36
2023-05-19T06:18:35.923Z,78.44
2023-05-19T06:21:03.686Z,78.38
2023-05-19T06:23:31.293Z,78.03
2023-05-19T06:25:58.907Z,77.92
2023-05-19T06:28:26.640Z,77.98
2023-05-19T06:30:54.259Z,77.81
2023-05-19T06:33:21.816Z,77.69
2023-05-19T06:35:49.430Z,77.48
2023-05-19T06:38:17.846Z,77.14
2023-05-19T06:40:45.440Z,76.82
2023-05-19T06:43:13.010Z,75.98
2023-05-19T06:45:40.628Z,75.84
2023-05-19T06:48:08.273Z,76.03
2023-05-19T06:50:35.943Z,76.47
2023-05-19T06:53:03.634Z,76.07
2023-05-19T06:55:31.400Z,75.81
2023-05-19T06:57:59.013Z,74.96
2023-05-19T07:00:26.779Z,74.52
2023-05-19T07:02:54.413Z,74.97
2023-05-19T07:05:22.382Z,75.28
2023-05-19T07:07:49.979Z,74.99
2023-05-19T07:10:17.604Z,75.14
2023-05-19T07:12:45.183Z,74.86
2023-05-19T07:15:12.837Z,73.95
2023-05-19T07:17:40.570Z,73.63
2023-05-19T07:20:09.025Z,74.13
2023-05-19T07:22:37.341Z,74.26
2023-05-19T07:25:05.735Z,74.59
2023-05-19T07:27:33.558Z,74.55
2023-05-19T07:30:04.114Z,73.99
2023-05-19T07:32:31.716Z,74.36
2023-05-19T07:34:59.342Z,74.38
2023-05-19T07:37:27.206Z,74.48
2023-05-19T07:39:54.846Z,73.74
2023-05-19T07:42:22.491Z,74.04
2023-05-19T07:44:50.101Z,73.27
2023-05-19T07:47:17.756Z,72.18
2023-05-19T07:49:45.374Z,72.35
2023-05-19T07:52:13.118Z,71.91
2023-05-19T07:54:40.695Z,71.12
2023-05-19T07:57:08.410Z,70.78
2023-05-19T07:59:36.076Z,71.02
2023-05-19T08:02:03.885Z,71.21
2023-05-19T08:04:31.886Z,71.24
2023-05-19T08:06:59.568Z,71.30
2023-05-19T08:09:27.331Z,70.84
2023-05-19T08:11:55.024Z,70.77
2023-05-19T08:14:22.641Z,70.41
2023-05-19T08:16:50.332Z,70.68
2023-05-19T08:19:18.077Z,70.79
2023-05-19T08:21:45.732Z,70.83
2023-05-19T08:24:13.362Z,70.82
2023-05-19T08:26:40.982Z,69.98
2023-05-19T08:29:08.564Z,70.05
2023-05-19T08:31:36.210Z,70.51
2023-05-19T08:34:03.832Z,70.43
2023-05-19T08:36:31.450Z,69.91
2023-05-19T08:38:59.121Z,70.11
2023-05-19T08:41:26.689Z,69.69
2023-05-19T08:43:54.608Z,69.49
2023-05-19T08:46:25.307Z,69.64
2023-05-19T08:49:09.363Z,69.40
2023-05-19T08:51:42.930Z,69.19
2023-05-19T08:54:17.555Z,68.96
2023-05-19T08:56:45.445Z,68.04
2023-05-19T08:59:17.174Z,67.77
2023-05-19T09:01:46.230Z,67.21
2023-05-19T09:04:15.594Z,66.25
2023-05-19T09:06:43.347Z,65.82
2023-05-19T09:09:11.614Z,65.38
2023-05-19T09:11:39.238Z,65.11
2023-05-19T09:14:06.883Z,65.19
2023-05-19T09:16:34.839Z,65.49
2023-05-19T09:19:02.605Z,64.56
2023-05-19T09:21:31.416Z,64.26
2023-05-19T09:24:05.124Z,64.13
2023-05-19T09:26:40.905Z,64.70
2023-05-19T09:29:11.868Z,64.75
2023-05-19T09:31:39.643Z,64.76
2023-05-19T09:34:12.795Z,64.54
2023-05-19T09:36:41.068Z,64.81
2023-05-19T09:39:18.822Z,64.93
2023-05-19T09:41:47.295Z,65.19
2023-05-19T09:44:20.618Z,66.31
2023-05-19T09:46:51.944Z,66.39
2023-05-19T09:49:24.023Z,65.84
2023-05-19T09:51:51.602Z,65.10
2023-05-19T09:54:21.415Z,65.53
2023-05-19T09:56:59.390Z,65.26
2023-05-19T09:59:30.543Z,64.65
2023-05-19T10:02:00.802Z,64.02
2023-05-19T10:04:30.814Z,64.26
2023-05-19T10:06:59.333Z,63.74
2023-05-19T10:09:29.127Z,63.52
2023-05-19T10:11:59.129Z,63.24
2023-05-19T10:14:28.912Z,62.66
2023-05-19T10:16:58.306Z,62.79
2023-05-19T10:19:27.919Z,63.14
2023-05-19T10:21:56.080Z,62.63
2023-05-19T10:24:24.030Z,61.83
2023-05-19T10:27:06.224Z,61.32
2023-05-19T10:29:37.754Z,60.93
2023-05-19T10:32:14.761Z,60.21
2023-05-19T10:35:20.159Z,60.22
2023-05-19T10:37:58.721Z,60.25
2023-05-19T10:40:33.598Z,60.46
2023-05-19T10:43:19.917Z,60.08
2023-05-19T10:45:58.582Z,60.12
2023-05-19T10:48:33.621Z,60.72
2023-05-19T10:51:01.690Z,60.64
2023-05-19T10:53:33.174Z,60.94
2023-05-19T10:56:04.361Z,61.46
2023-05-19T10:58:48.767Z,62.21
2023-05-19T11:01:18.029Z,61.49
2023-05-19T11:03:49.546Z,61.47
2023-05-19T11:06:28.129Z,61.22
2023-05-19T11:09:00.411Z,59.76
2023-05-19T11:11:46.615Z,59.86
2023-05-19T11:14:18.413Z,59.79
2023-05-19T11:16:50.671Z,59.25
2023-05-19T11:19:28.811Z,58.85
2023-05-19T11:21:57.831Z,57.80
2023-05-19T11:24:34.296Z,57.60
2023-05-19T11:27:20.561Z,56.41
2023-05-19T11:29:49.216Z,56.24
2023-05-19T11:32:17.895Z,55.21
2023-05-19T11:34:45.530Z,54.20
2023-05-19T11:37:13.139Z,54.12
2023-05-19T11:39:41.040Z,55.00
2023-05-19T11:42:09.057Z,55.23
2023-05-19T11:44:36.774Z,55.27
2023-05-19T11:47:05.577Z,54.48
2023-05-19T11:49:33.518Z,54.71
2023-05-19T11:52:01.276Z,55.04
2023-05-19T11:54:33.590Z,54.63
2023-05-19T11:57:05.093Z,54.54
2023-05-19T11:59:35.580Z,53.80
2023-05-19T12:02:14.840Z,54.08
2023-05-19T12:04:43.036Z,54.13
2023-05-19T12:07:11.656Z,54.30
2023-05-19T12:09:39.964Z,54.49
2023-05-19T12:12:07.824Z,54.43
2023-05-19T12:14:35.743Z,53.95
2023-05-19T12:17:17.505Z,53.94
2023-05-19T12:19:46.571Z,54.58
2023-05-19T12:22:16.232Z,55.10
2023-05-19T12:24:45.031Z,54.93
2023-05-19T12:27:12.595Z,55.22
2023-05-19T12:29:40.887Z,54.90
2023-05-19T12:32:09.386Z,55.09
2023-05-19T12:34:38.474Z,54.95
2023-05-19T12:37:06.129Z,54.99
2023-05-19T12:39:33.877Z,55.23
2023-05-19T12:42:07.967Z,55.58
2023-05-19T12:44:49.285Z,54.97
2023-05-19T12:47:18.301Z,54.82
2023-05-19T12:50:07.144Z,54.60
2023-05-19T12:52:42.738Z,54.97
2023-05-19T12:55:10.936Z,55.70
2023-05-19T12:57:43.154Z,56.34
2023-05-19T13:00:16.670Z,56.20
2023-05-19T13:03:04.704Z,56.28
2023-05-19T13:05:38.289Z,56.50
2023-05-19T13:08:12.658Z,56.82
2023-05-19T13:10:42.359Z,57.34
2023-05-19T13:13:10.683Z,57.52
2023-05-19T13:15:41.568Z,57.94
2023-05-19T13:18:10.463Z,58.14
2023-05-19T13:20:39.449Z,58.08
2023-05-19T13:23:07.438Z,57.86
2023-05-19T13:25:35.356Z,57.68
2023-05-19T13:28:04.001Z,57.81
2023-05-19T13:30:33.029Z,57.70
2023-05-19T13:33:00.911Z,58.15
2023-05-19T13:35:28.743Z,58.18
2023-05-19T13:37:56.383Z,58.16
2023-05-19T13:40:24.093Z,58.22
2023-05-19T13:42:51.792Z,58.09
2023-05-19T13:45:19.532Z,57.96
2023-05-19T13:47:47.265Z,58.07
2023-05-19T13:50:14.940Z,58.33
2023-05-19T13:52:42.710Z,58.80
2023-05-19T13:55:10.330Z,58.82
2023-05-19T13:57:37.972Z,59.09
2023-05-19T14:00:06.563Z,59.37
2023-05-19T14:02:34.387Z,59.40
2023-05-19T14:05:02.145Z,59.74
2023-05-19T14:07:30.008Z,59.87
2023-05-19T14:09:57.648Z,60.22
2023-05-19T14:12:35.387Z,60.33
2023-05-19T14:15:09.090Z,60.52
2023-05-19T14:17:37.456Z,60.89
2023-05-19T14:20:05.989Z,61.06
2023-05-19T14:22:33.627Z,61.16
2023-05-19T14:25:02.089Z,61.78
2023-05-19T14:27:29.735Z,61.96
2023-05-19T14:29:57.491Z,62.05
2023-05-19T14:32:26.290Z,62.07
2023-05-19T14:34:54.935Z,62.09
2023-05-19T14:37:22.568Z,62.38
2023-05-19T14:39:50.186Z,62.29
2023-05-19T14:42:17.777Z,62.47
2023-05-19T14:44:45.436Z,62.52
2023-05-19T14:47:13.256Z,62.44
2023-05-19T14:49:41.047Z,62.45
2023-05-19T14:52:08.615Z,62.44
2023-05-19T14:54:36.240Z,62.89
2023-05-19T14:57:04.084Z,63.55
2023-05-19T14:59:31.679Z,63.75
2023-05-19T15:01:59.337Z,64.37
2023-05-19T15:04:27.316Z,64.27
2023-05-19T15:07:05.670Z,64.44
2023-05-19T15:09:37.882Z,64.59
2023-05-19T15:12:05.959Z,64.76
2023-05-19T15:14:33.622Z,64.75
2023-05-19T15:17:04.385Z,64.95
2023-05-19T15:19:34.261Z,65.03
2023-05-19T15:22:02.224Z,65.25
2023-05-19T15:24:29.901Z,65.74
2023-05-19T15:26:57.561Z,66.07
2023-05-19T15:29:28.118Z,66.42
2023-05-19T15:31:55.754Z,66.72
2023-05-19T15:34:23.405Z,66.94
2023-05-19T15:36:51.101Z,67.58
2023-05-19T15:39:18.752Z,67.60
2023-05-19T15:41:46.412Z,67.68
2023-05-19T15:44:14.044Z,67.94
2023-05-19T15:46:41.708Z,67.91
2023-05-19T15:49:09.497Z,68.29
2023-05-19T15:51:40.534Z,68.60
2023-05-19T15:54:08.128Z,68.83
2023-05-19T15:56:35.784Z,69.14
2023-05-19T15:59:03.469Z,69.64
2023-05-19T16:01:34.113Z,69.97
2023-05-19T16:04:01.962Z,69.96
2023-05-19T16:06:30.330Z,69.91
2023-05-19T16:08:57.993Z,70.16
2023-05-19T16:11:25.601Z,70.44
2023-05-19T16:13:53.209Z,70.66
2023-05-19T16:16:20.873Z,70.71
2023-05-19T16:18:48.592Z,70.77
2023-05-19T16:21:16.338Z,71.11
2023-05-19T16:23:44.142Z,71.23
2023-05-19T16:26:11.841Z,71.37
2023-05-19T16:28:39.449Z,71.55
2023-05-19T16:31:09.074Z,71.75
2023-05-19T16:33:36.672Z,72.35
2023-05-19T16:36:04.564Z,72.59
2023-05-19T16:38:32.236Z,72.50
2023-05-19T16:40:59.842Z,73.19
2023-05-19T16:43:27.580Z,73.39
2023-05-19T16:45:55.246Z,73.61
2023-05-19T16:48:22.877Z,73.89
2023-05-19T16:50:50.462Z,74.33
2023-05-19T16:53:18.063Z,74.50
2023-05-19T16:55:45.652Z,75.15
2023-05-19T16:58:13.282Z,75.44
2023-05-19T17:00:40.873Z,75.53
2023-05-19T17:03:08.556Z,75.71
2023-05-19T17:05:36.265Z,75.72
2023-05-19T17:08:04.029Z,75.89
2023-05-19T17:10:31.813Z,75.89
2023-05-19T17:12:59.553Z,75.83
2023-05-19T17:15:27.325Z,75.86
2023-05-19T17:17:54.968Z,76.20
2023-05-19T17:20:22.595Z,76.41
2023-05-19T17:22:50.168Z,76.71
2023-05-19T17:25:17.767Z,76.82
2023-05-19T17:27:45.385Z,77.05
2023-05-19T17:30:13.825Z,77.25
2023-05-19T17:32:41.467Z,77.71
2023-05-19T17:35:09.293Z,77.72
2023-05-19T17:37:36.960Z,78.20
2023-05-19T17:40:05.212Z,78.17
2023-05-19T17:42:32.850Z,78.25
2023-05-19T17:45:00.463Z,78.47
2023-05-19T17:47:28.264Z,78.56
2023-05-19T17:49:55.866Z,78.59
2023-05-19T17:52:23.807Z,78.97
2023-05-19T17:54:51.719Z,79.55
2023-05-19T17:57:24.604Z,79.70
2023-05-19T17:59:53.668Z,79.53
2023-05-19T18:02:21.486Z,79.79
2023-05-19T18:04:49.514Z,79.64
2023-05-19T18:07:17.975Z,79.69
2023-05-19T18:09:46.075Z,79.97
2023-05-19T18:12:14.075Z,80.12
2023-05-19T18:14:41.871Z,80.90
2023-05-19T18:17:09.569Z,80.49
2023-05-19T18:19:37.255Z,80.91
2023-05-19T18:22:05.322Z,80.92
2023-05-19T18:24:33.019Z,80.80
2023-05-19T18:27:00.706Z,80.92
2023-05-19T18:29:28.552Z,81.17
2023-05-19T18:31:56.264Z,81.29
2023-05-19T18:34:23.909Z,81.37
2023-05-19T18:36:51.634Z,81.39
2023-05-19T18:39:19.302Z,81.51
2023-05-19T18:41:47.048Z,81.75
2023-05-19T18:44:15.943Z,81.86
2023-05-19T18:46:43.560Z,81.92
2023-05-19T18:49:11.835Z,82.40
2023-05-19T18:51:39.746Z,82.19
2023-05-19T18:54:07.571Z,82.18
2023-05-19T18:56:35.207Z,82.81
2023-05-19T18:59:02.886Z,82.64
2023-05-19T19:01:30.548Z,82.82
2023-05-19T19:03:58.257Z,82.84
2023-05-19T19:06:25.946Z,83.24
2023-05-19T19:08:53.732Z,82.93
2023-05-19T19:11:23.492Z,83.05
2023-05-19T19:13:51.452Z,83.27
2023-05-19T19:16:19.277Z,83.17
2023-05-19T19:18:50.012Z,83.56
2023-05-19T19:21:17.878Z,83.70
2023-05-19T19:23:45.853Z,83.47
2023-05-19T19:26:14.006Z,83.68
2023-05-19T19:28:41.920Z,83.57
2023-05-19T19:31:12.168Z,83.43
2023-05-19T19:33:39.801Z,83.33
2023-05-19T19:36:07.539Z,83.33
2023-05-19T19:38:35.369Z,83.43
2023-05-19T19:41:03.421Z,83.42
2023-05-19T19:43:31.114Z,83.38
2023-05-19T19:46:02.783Z,83.43
2023-05-19T19:48:30.418Z,83.47
2023-05-19T19:50:58.145Z,83.62
2023-05-19T19:53:25.858Z,83.59
2023-05-19T19:56:00.543Z,83.68
2023-05-19T19:58:28.854Z,83.77
2023-05-19T20:01:02.019Z,83.87
2023-05-19T20:03:31.850Z,83.83
2023-05-19T20:05:59.508Z,83.78
2023-05-19T20:08:27.563Z,83.78
2023-05-19T20:10:57.024Z,83.98
2023-05-19T20:13:24.808Z,83.96
2023-05-19T20:15:52.822Z,84.08
2023-05-19T20:18:20.541Z,83.98
2023-05-19T20:20:48.203Z,83.98
2023-05-19T20:23:15.812Z,83.93
2023-05-19T20:25:58.445Z,83.92
2023-05-19T20:28:30.639Z,84.04
2023-05-19T20:30:58.262Z,83.95
2023-05-19T20:33:25.869Z,83.95
2023-05-19T20:35:53.456Z,84.16
2023-05-19T20:38:21.032Z,84.14
2023-05-19T20:40:48.651Z,84.13
2023-05-19T20:43:16.455Z,84.22
2023-05-19T20:45:44.486Z,84.13
2023-05-19T20:48:12.234Z,84.18
2023-05-19T20:50:39.986Z,84.34
2023-05-19T20:53:07.640Z,84.55
2023-05-19T20:55:38.640Z,84.43
2023-05-19T20:58:06.360Z,84.40
2023-05-19T21:00:34.123Z,84.57
2023-05-19T21:03:02.268Z,84.67
2023-05-19T21:05:30.123Z,84.80
2023-05-19T21:07:57.822Z,84.92
2023-05-19T21:10:25.442Z,85.07
2023-05-19T21:12:53.062Z,85.08
2023-05-19T21:15:20.668Z,84.91
2023-05-19T21:17:48.384Z,84.98
2023-05-19T21:20:16.030Z,85.10
2023-05-19T21:22:43.649Z,85.07
2023-05-19T21:25:11.369Z,85.16
2023-05-19T21:27:38.962Z,85.38
2023-05-19T21:30:07.196Z,85.32
2023-05-19T21:32:34.978Z,85.30
2023-05-19T21:35:02.887Z,85.56
2023-05-19T21:37:30.480Z,85.52
2023-05-19T21:39:58.095Z,85.79
2023-05-19T21:42:25.768Z,85.95
2023-05-19T21:44:56.153Z,86.07
2023-05-19T21:47:23.746Z,85.94
2023-05-19T21:49:51.349Z,85.81
2023-05-19T21:52:18.961Z,85.94
2023-05-19T21:54:46.740Z,85.89
2023-05-19T21:57:14.342Z,85.97
2023-05-19T21:59:41.932Z,86.08
2023-05-19T22:02:09.630Z,86.14
2023-05-19T22:04:37.374Z,86.16
2023-05-19T22:07:06.232Z,86.02
2023-05-19T22:09:33.848Z,86.06
2023-05-19T22:12:01.605Z,86.33
2023-05-19T22:14:29.186Z,86.33
2023-05-19T22:16:56.885Z,86.45
2023-05-19T22:19:24.740Z,86.53
2023-05-19T22:22:01.966Z,86.50
2023-05-19T22:24:37.946Z,86.56
2023-05-19T22:27:08.323Z,87.01
2023-05-19T22:29:36.803Z,86.82
2023-05-19T22:32:08.420Z,86.66
2023-05-19T22:34:36.024Z,86.74
2023-05-19T22:37:03.753Z,86.79
2023-05-19T22:39:31.539Z,86.66
2023-05-19T22:41:59.118Z,86.93
2023-05-19T22:44:27.100Z,87.12
2023-05-19T22:46:54.831Z,86.98
2023-05-19T22:49:22.513Z,87.48
2023-05-19T22:51:50.264Z,87.32
2023-05-19T22:54:18.037Z,87.34
2023-05-19T22:56:46.484Z,87.32
2023-05-19T22:59:14.956Z,87.35
2023-05-19T23:01:42.552Z,87.49
2023-05-19T23:04:12.473Z,87.54
2023-05-19T23:06:40.208Z,87.55
2023-05-19T23:09:07.806Z,87.57
2023-05-19T23:11:35.429Z,87.60
2023-05-19T23:14:03.219Z,87.62
2023-05-19T23:16:32.111Z,87.75
2023-05-19T23:18:59.891Z,87.66
2023-05-19T23:21:27.648Z,87.51
2023-05-19T23:23:55.265Z,87.62
2023-05-19T23:26:23.202Z,87.62
2023-05-19T23:28:50.809Z,87.55
2023-05-19T23:31:18.546Z,87.57
2023-05-19T23:33:46.199Z,87.65
2023-05-19T23:36:14.148Z,87.63
2023-05-19T23:38:41.797Z,87.81
2023-05-19T23:41:09.469Z,87.80
2023-05-19T23:43:37.075Z,87.79
2023-05-19T23:46:04.916Z,87.73
2023-05-19T23:48:32.491Z,87.49
2023-05-19T23:51:02.190Z,87.72
2023-05-19T23:53:29.741Z,87.74
2023-05-19T23:56:00.542Z,87.70
2023-05-19T23:58:28.311Z,87.58
